Time;durP1;ratioP1;P1;durP2;ratioP2;P2;SDS_P1;SDS_P2;PMS_P1;PMS_P2;Temp;Humidity;BMP_temperature;BMP_pressure;BME280_temperature;BME280_humidity;BME280_pressure;Samples;Min_cycle;Max_cycle;Signal;HPM_P1;HPM_P2
2020/12/23 00:01:18;;;;;;;42.17;23.67;;;10.40;99.90;;;;;;5039629;28;38647;-78
2020/12/23 00:03:45;;;;;;;41.90;23.30;;;10.40;99.90;;;;;;5058549;28;38412;-78
2020/12/23 00:06:11;;;;;;;43.67;24.43;;;10.40;99.90;;;;;;5057384;28;38884;-78
2020/12/23 00:08:37;;;;;;;57.10;27.63;;;10.40;99.90;;;;;;5045662;28;37727;-79
2020/12/23 00:11:03;;;;;;;53.43;26.13;;;10.40;99.90;;;;;;5059514;28;40941;-78
2020/12/23 00:13:30;;;;;;;55.90;29.17;;;10.40;99.90;;;;;;5043637;28;38557;-78
2020/12/23 00:15:57;;;;;;;58.10;30.80;;;10.50;99.90;;;;;;5040076;28;38609;-78
2020/12/23 00:18:24;;;;;;;56.80;28.37;;;10.50;99.90;;;;;;5036208;28;35936;-78
2020/12/23 00:20:50;;;;;;;49.90;26.47;;;10.50;99.90;;;;;;5056487;28;39698;-78
2020/12/23 00:23:16;;;;;;;58.30;30.13;;;10.50;99.90;;;;;;5040063;28;37964;-78
2020/12/23 00:25:45;;;;;;;65.83;29.50;;;10.50;99.90;;;;;;5044826;28;37853;-78
2020/12/23 00:28:12;;;;;;;80.63;34.97;;;10.50;99.90;;;;;;5040359;28;36520;-78
2020/12/23 00:30:40;;;;;;;96.60;37.70;;;10.50;99.90;;;;;;5040559;28;38494;-78
2020/12/23 00:33:07;;;;;;;83.07;34.17;;;10.60;99.90;;;;;;5029088;28;39571;-78
2020/12/23 00:35:33;;;;;;;79.30;33.13;;;10.60;99.90;;;;;;5039603;28;38240;-78
2020/12/23 00:37:59;;;;;;;72.63;32.63;;;10.60;99.90;;;;;;5048811;28;37267;-78
2020/12/23 00:40:25;;;;;;;63.60;28.37;;;10.60;99.90;;;;;;5056816;28;37761;-78
2020/12/23 00:42:51;;;;;;;77.70;33.43;;;10.60;99.90;;;;;;5057231;28;38401;-78
2020/12/23 00:45:17;;;;;;;58.00;27.47;;;10.70;99.90;;;;;;5041735;28;39216;-78
2020/12/23 00:47:46;;;;;;;49.40;25.63;;;10.60;99.90;;;;;;5040369;28;38711;-78
2020/12/23 00:50:15;;;;;;;93.17;36.17;;;10.60;99.90;;;;;;5043216;28;39130;-78
2020/12/23 00:52:41;;;;;;;91.17;37.63;;;10.60;99.90;;;;;;5038430;28;37608;-78
2020/12/23 00:55:07;;;;;;;95.27;36.33;;;10.60;99.90;;;;;;5047372;28;38426;-78
2020/12/23 00:57:33;;;;;;;58.43;31.23;;;10.70;99.90;;;;;;5041731;28;37899;-78
2020/12/23 00:59:59;;;;;;;70.63;30.80;;;10.70;99.90;;;;;;5058527;28;38898;-78
2020/12/23 01:02:25;;;;;;;57.37;27.43;;;10.70;99.90;;;;;;5052113;28;39527;-78
2020/12/23 01:04:51;;;;;;;95.10;39.93;;;10.70;99.90;;;;;;5063725;28;37836;-78
2020/12/23 01:07:17;;;;;;;108.53;41.47;;;10.70;99.90;;;;;;5046274;28;37983;-78
2020/12/23 01:09:43;;;;;;;108.47;42.83;;;10.80;99.90;;;;;;5065088;28;39500;-78
2020/12/23 01:12:12;;;;;;;58.40;31.83;;;10.80;99.90;;;;;;5065286;28;37825;-78
2020/12/23 01:14:39;;;;;;;76.55;35.72;;;10.80;99.90;;;;;;5047893;28;38538;-78
2020/12/23 01:17:05;;;;;;;80.23;38.77;;;10.80;99.90;;;;;;5047164;28;37542;-78
2020/12/23 01:19:31;;;;;;;53.90;28.93;;;10.90;99.90;;;;;;5042087;28;39146;-79
2020/12/23 01:21:57;;;;;;;93.43;40.70;;;10.90;99.90;;;;;;5040388;28;38071;-78
2020/12/23 01:24:24;;;;;;;75.88;35.92;;;10.90;99.90;;;;;;5045226;28;38553;-79
2020/12/23 01:26:50;;;;;;;85.78;37.92;;;11.00;99.90;;;;;;5045435;28;37542;-78
2020/12/23 01:29:16;;;;;;;56.73;32.60;;;11.00;99.90;;;;;;5057598;28;39770;-78
2020/12/23 01:31:42;;;;;;;97.28;42.63;;;11.00;99.90;;;;;;5059216;28;38768;-78
2020/12/23 01:34:09;;;;;;;71.18;36.60;;;11.00;99.90;;;;;;5048130;28;39527;-78
2020/12/23 01:36:35;;;;;;;74.40;39.35;;;11.00;99.90;;;;;;5040484;28;36588;-78
2020/12/23 01:39:02;;;;;;;70.45;39.38;;;11.10;99.90;;;;;;5061055;28;38025;-78
2020/12/23 01:41:28;;;;;;;118.15;49.03;;;11.10;99.90;;;;;;5056414;28;39314;-79
2020/12/23 01:43:56;;;;;;;83.53;41.78;;;11.10;99.90;;;;;;5044780;28;38458;-78
2020/12/23 01:46:36;;;;;;;148.90;53.20;;;11.10;99.90;;;;;;5038381;28;36547;-78
2020/12/23 01:49:11;;;;;;;79.60;41.20;;;11.10;99.90;;;;;;5057022;28;39498;-78
2020/12/23 01:51:38;;;;;;;76.65;41.78;;;11.20;99.90;;;;;;5045927;28;48556;-78
2020/12/23 01:54:06;;;;;;;62.75;36.50;;;11.20;99.90;;;;;;5042370;28;37577;-78
2020/12/23 01:56:37;;;;;;;79.15;41.40;;;11.20;99.90;;;;;;5050717;28;37290;-78
2020/12/23 01:59:09;;;;;;;57.38;37.25;;;11.20;99.90;;;;;;5056402;28;40141;-78
2020/12/23 02:01:47;;;;;;;71.75;43.85;;;11.20;99.90;;;;;;5042794;28;48893;-79
2020/12/23 02:04:15;;;;;;;54.08;37.50;;;11.30;99.90;;;;;;5046311;28;38345;-78
2020/12/23 02:06:41;;;;;;;95.57;49.65;;;11.30;99.90;;;;;;5062109;28;38198;-78
2020/12/23 02:09:09;;;;;;;84.75;48.47;;;11.30;99.90;;;;;;5045979;28;40003;-78
2020/12/23 02:11:36;;;;;;;92.38;50.22;;;11.30;99.90;;;;;;5054712;28;37980;-78
2020/12/23 02:14:02;;;;;;;58.88;39.95;;;11.40;99.90;;;;;;5061086;28;39488;-78
2020/12/23 02:16:30;;;;;;;127.22;56.70;;;11.30;99.90;;;;;;5045509;28;36051;-79
2020/12/23 02:18:57;;;;;;;52.38;38.38;;;11.30;99.90;;;;;;5045239;28;39938;-78
2020/12/23 02:21:24;;;;;;;55.13;37.77;;;11.30;99.90;;;;;;5029824;28;39995;-78
2020/12/23 02:23:51;;;;;;;57.07;39.47;;;11.30;99.90;;;;;;5047422;28;38748;-79
2020/12/23 02:26:17;;;;;;;63.80;41.92;;;11.40;99.90;;;;;;5046731;28;38122;-79
2020/12/23 02:28:44;;;;;;;56.67;38.03;;;11.40;99.90;;;;;;5061260;28;38045;-78
2020/12/23 02:31:10;;;;;;;61.88;40.15;;;11.40;99.90;;;;;;5048813;28;39209;-78
2020/12/23 02:33:36;;;;;;;62.05;38.50;;;11.40;99.90;;;;;;5044207;28;38851;-79
2020/12/23 02:36:04;;;;;;;58.40;38.40;;;11.40;99.90;;;;;;5039334;28;36489;-79
2020/12/23 02:38:31;;;;;;;79.75;45.90;;;11.50;99.90;;;;;;5059285;28;38948;-79
2020/12/23 02:40:57;;;;;;;60.08;38.60;;;11.50;99.90;;;;;;5058987;28;40513;-79
2020/12/23 02:43:23;;;;;;;92.43;48.33;;;11.50;99.90;;;;;;5044349;28;38388;-79
2020/12/23 02:45:49;;;;;;;66.38;40.22;;;11.50;99.90;;;;;;5040628;28;37866;-80
2020/12/23 02:48:15;;;;;;;76.38;45.10;;;11.50;99.90;;;;;;5046424;28;38703;-80
2020/12/23 02:50:41;;;;;;;49.30;34.90;;;11.50;99.90;;;;;;5037664;28;39012;-79
2020/12/23 02:53:08;;;;;;;53.53;37.08;;;11.50;99.90;;;;;;5039599;28;38536;-79
2020/12/23 02:55:34;;;;;;;82.63;45.15;;;11.50;99.90;;;;;;5037524;28;37705;-79
2020/12/23 02:58:00;;;;;;;80.95;44.15;;;11.50;99.90;;;;;;5056586;28;38921;-79
2020/12/23 03:00:26;;;;;;;54.97;37.00;;;11.50;99.90;;;;;;5054767;28;40455;-79
2020/12/23 03:02:52;;;;;;;61.28;39.53;;;11.50;99.90;;;;;;5038163;28;38589;-78
2020/12/23 03:05:18;;;;;;;109.35;51.70;;;11.50;99.90;;;;;;5041389;28;37451;-78
2020/12/23 03:07:44;;;;;;;64.82;40.03;;;11.50;99.90;;;;;;5056953;28;37496;-79
2020/12/23 03:10:13;;;;;;;81.10;45.72;;;11.60;99.90;;;;;;5051218;28;38443;-78
2020/12/23 03:12:47;;;;;;;52.13;36.38;;;11.60;99.90;;;;;;5056369;28;39082;-78
2020/12/23 03:15:23;;;;;;;61.33;39.65;;;11.60;99.90;;;;;;5033328;28;38139;-78
2020/12/23 03:17:50;;;;;;;91.95;46.70;;;11.60;99.90;;;;;;5037959;28;38790;-78
2020/12/23 03:20:19;;;;;;;89.68;48.33;;;11.60;99.90;;;;;;5037199;28;38777;-78
2020/12/23 03:22:45;;;;;;;58.25;38.72;;;11.60;99.90;;;;;;5057831;28;38168;-78
2020/12/23 03:25:11;;;;;;;65.65;39.13;;;11.60;99.90;;;;;;5042010;28;35841;-78
2020/12/23 03:27:38;;;;;;;57.53;39.03;;;11.60;99.90;;;;;;5041027;28;37880;-77
2020/12/23 03:30:07;;;;;;;53.33;36.42;;;11.70;99.90;;;;;;5056191;28;38899;-78
2020/12/23 03:32:34;;;;;;;59.20;37.47;;;11.70;99.90;;;;;;5053549;28;38295;-77
2020/12/23 03:35:03;;;;;;;58.90;36.37;;;11.70;99.90;;;;;;5031214;28;37158;-78
2020/12/23 03:37:29;;;;;;;56.40;36.17;;;11.70;99.90;;;;;;5045693;28;47874;-78
2020/12/23 03:39:55;;;;;;;47.63;33.45;;;11.80;99.90;;;;;;5037141;28;39403;-78
2020/12/23 03:42:21;;;;;;;60.38;35.20;;;11.80;99.90;;;;;;5040320;28;37747;-79
2020/12/23 03:44:47;;;;;;;110.97;47.88;;;11.80;99.90;;;;;;5051715;28;37987;-78
2020/12/23 03:47:13;;;;;;;59.60;35.97;;;11.80;99.90;;;;;;5049937;28;39275;-78
2020/12/23 03:49:39;;;;;;;111.25;48.00;;;11.80;99.90;;;;;;5056902;28;38542;-78
2020/12/23 03:52:09;;;;;;;97.78;45.60;;;11.80;99.90;;;;;;5035885;28;20096;-78
2020/12/23 03:54:35;;;;;;;133.27;51.80;;;11.90;99.90;;;;;;5039960;28;38430;-77
2020/12/23 03:57:02;;;;;;;91.80;45.08;;;11.90;99.90;;;;;;5040224;28;41252;-77
2020/12/23 03:59:28;;;;;;;70.65;41.25;;;11.90;99.90;;;;;;5039378;28;38857;-77
2020/12/23 04:01:54;;;;;;;55.35;36.22;;;11.90;99.90;;;;;;5040582;28;37340;-78
2020/12/23 04:04:20;;;;;;;115.30;50.92;;;11.90;99.90;;;;;;5056343;28;36432;-78
2020/12/23 04:06:46;;;;;;;59.75;37.00;;;11.80;99.90;;;;;;5039212;28;38591;-78
2020/12/23 04:09:12;;;;;;;49.78;35.72;;;11.80;99.90;;;;;;5057548;28;38055;-78
2020/12/23 04:11:38;;;;;;;49.20;34.10;;;11.80;99.90;;;;;;5045029;28;38733;-78
2020/12/23 04:14:05;;;;;;;58.90;37.60;;;11.80;99.90;;;;;;5044441;28;37457;-78
2020/12/23 04:16:31;;;;;;;55.20;37.63;;;11.80;99.90;;;;;;5042564;28;37925;-78
2020/12/23 04:18:57;;;;;;;56.92;36.78;;;11.80;99.90;;;;;;5048788;28;38200;-78
2020/12/23 04:21:27;;;;;;;82.55;44.25;;;11.80;99.90;;;;;;5039012;28;38536;-78
2020/12/23 04:23:53;;;;;;;114.90;52.08;;;11.80;99.90;;;;;;5043368;28;37537;-78
2020/12/23 04:26:19;;;;;;;54.20;38.88;;;11.80;99.90;;;;;;5046433;28;37695;-78
2020/12/23 04:28:46;;;;;;;75.13;45.53;;;11.80;99.90;;;;;;5054631;28;38041;-78
2020/12/23 04:31:12;;;;;;;79.22;44.70;;;11.80;99.90;;;;;;5043623;28;38461;-77
2020/12/23 04:33:38;;;;;;;75.53;45.83;;;11.80;99.90;;;;;;5046204;28;37123;-78
2020/12/23 04:36:04;;;;;;;92.15;49.25;;;11.80;99.90;;;;;;5057153;28;40351;-77
2020/12/23 04:38:30;;;;;;;57.47;41.50;;;11.80;99.90;;;;;;5034898;28;39435;-78
2020/12/23 04:40:56;;;;;;;52.60;39.17;;;11.80;99.90;;;;;;5038625;28;40485;-76
2020/12/23 04:43:23;;;;;;;106.75;53.05;;;11.80;99.90;;;;;;5053973;28;37945;-78
2020/12/23 04:45:50;;;;;;;94.63;49.25;;;11.80;99.90;;;;;;5058123;28;38276;-77
2020/12/23 04:48:23;;;;;;;77.50;45.97;;;11.90;99.90;;;;;;5035819;28;37702;-77
2020/12/23 04:50:55;;;;;;;56.95;41.10;;;11.90;99.90;;;;;;5058920;28;39039;-78
2020/12/23 04:53:22;;;;;;;75.18;47.53;;;11.90;99.90;;;;;;5037999;28;37544;-78
2020/12/23 04:55:49;;;;;;;62.40;42.28;;;11.90;99.90;;;;;;5055669;28;39311;-78
2020/12/23 04:58:15;;;;;;;55.67;39.85;;;11.80;99.90;;;;;;5044822;28;38828;-78
2020/12/23 05:00:41;;;;;;;68.30;44.38;;;11.90;99.90;;;;;;5040825;28;39178;-78
2020/12/23 05:03:07;;;;;;;64.35;41.90;;;11.90;99.90;;;;;;5035609;28;36740;-78
2020/12/23 05:05:34;;;;;;;82.15;45.13;;;11.90;99.90;;;;;;5042258;28;38303;-78
2020/12/23 05:08:00;;;;;;;60.13;39.78;;;11.90;99.90;;;;;;5056385;28;37975;-77
2020/12/23 05:10:32;;;;;;;118.85;52.55;;;11.90;99.90;;;;;;5040176;28;38459;-77
2020/12/23 05:12:59;;;;;;;51.90;36.90;;;11.90;99.90;;;;;;5038116;28;36106;-77
2020/12/23 05:15:25;;;;;;;51.47;35.88;;;11.90;99.90;;;;;;5039497;28;37434;-77
2020/12/23 05:18:02;;;;;;;144.75;52.65;;;11.90;99.90;;;;;;5040776;28;39109;-78
2020/12/23 05:20:29;;;;;;;57.17;37.17;;;11.90;99.90;;;;;;5054991;28;49262;-77
2020/12/23 05:22:58;;;;;;;51.10;36.28;;;12.00;99.90;;;;;;5041861;28;37787;-77
2020/12/23 05:25:24;;;;;;;58.38;35.20;;;12.00;99.90;;;;;;5036384;28;38983;-78
2020/12/23 05:27:50;;;;;;;62.28;36.17;;;12.00;99.90;;;;;;5050298;28;38283;-77
2020/12/23 05:30:19;;;;;;;59.83;34.22;;;12.00;99.90;;;;;;5051262;28;38418;-78
2020/12/23 05:32:47;;;;;;;52.35;32.75;;;12.00;99.90;;;;;;5046390;28;38304;-78
2020/12/23 05:35:14;;;;;;;52.33;33.00;;;12.00;99.90;;;;;;5037559;28;39493;-78
2020/12/23 05:37:44;;;;;;;41.72;28.38;;;12.10;99.90;;;;;;5057890;28;35903;-78
2020/12/23 05:40:11;;;;;;;43.80;28.63;;;12.10;99.90;;;;;;5036605;28;38594;-78
2020/12/23 05:42:39;;;;;;;38.72;26.05;;;12.10;99.90;;;;;;5044056;28;37981;-78
2020/12/23 05:45:07;;;;;;;39.45;25.52;;;12.10;99.90;;;;;;5041646;28;38462;-77
2020/12/23 05:47:34;;;;;;;34.53;23.85;;;12.10;99.90;;;;;;5042266;28;40270;-78
2020/12/23 05:50:00;;;;;;;31.95;22.33;;;12.10;99.90;;;;;;5058120;28;38804;-77
2020/12/23 05:52:35;;;;;;;41.05;24.02;;;12.10;99.90;;;;;;5045432;28;37346;-78
2020/12/23 05:55:13;;;;;;;29.95;20.65;;;12.10;99.90;;;;;;5047613;28;37055;-78
2020/12/23 05:57:39;;;;;;;25.27;20.08;;;12.10;99.90;;;;;;5047763;28;47957;-78
2020/12/23 06:00:05;;;;;;;25.00;19.35;;;12.10;99.90;;;;;;5057711;28;37442;-77
2020/12/23 06:02:55;;;;;;;28.85;19.48;;;12.10;99.90;;;;;;5059820;28;38833;-78
2020/12/23 06:05:27;;;;;;;30.10;19.85;;;12.10;99.90;;;;;;5042318;28;38427;-76
2020/12/23 06:07:57;;;;;;;24.30;17.17;;;12.20;99.90;;;;;;5062328;28;37590;-77
2020/12/23 06:10:24;;;;;;;19.75;15.07;;;12.20;99.90;;;;;;5064288;28;38411;-77
2020/12/23 06:12:56;;;;;;;19.52;15.13;;;12.30;99.90;;;;;;5045525;28;35532;-77
2020/12/23 06:15:36;;;;;;;16.65;13.45;;;12.30;99.90;;;;;;5061148;28;38500;-77
2020/12/23 06:18:04;;;;;;;16.25;13.13;;;12.30;99.90;;;;;;5045435;28;37968;-78
2020/12/23 06:20:36;;;;;;;17.88;12.52;;;12.30;99.90;;;;;;5048853;28;38164;-76
2020/12/23 06:23:03;;;;;;;16.48;12.45;;;12.30;99.90;;;;;;5048070;28;38196;-77
2020/12/23 06:25:32;;;;;;;19.35;14.02;;;12.30;99.90;;;;;;5061619;28;37758;-76
2020/12/23 06:28:00;;;;;;;18.77;13.25;;;12.30;99.90;;;;;;5043108;28;39537;-77
2020/12/23 06:30:28;;;;;;;21.45;13.85;;;12.30;99.90;;;;;;5047792;28;39261;-77
2020/12/23 06:33:03;;;;;;;16.90;12.30;;;12.40;99.90;;;;;;5047731;28;37411;-77
2020/12/23 06:35:29;;;;;;;21.52;13.38;;;12.30;99.90;;;;;;5049148;28;48256;-76
2020/12/23 06:37:56;;;;;;;13.95;10.95;;;12.30;99.90;;;;;;5060655;28;37586;-77
2020/12/23 06:40:22;;;;;;;12.35;9.82;;;12.30;99.90;;;;;;5061997;28;38581;-77
2020/12/23 06:42:50;;;;;;;11.73;9.65;;;12.30;99.90;;;;;;5059818;28;37297;-77
2020/12/23 06:45:16;;;;;;;23.98;12.88;;;12.30;99.90;;;;;;5055024;28;39650;-77
2020/12/23 06:47:43;;;;;;;8.60;7.10;;;12.40;99.90;;;;;;5064027;28;37929;-77
2020/12/23 06:50:13;;;;;;;7.75;6.68;;;12.30;99.90;;;;;;5045021;28;39587;-77
2020/12/23 06:52:42;;;;;;;14.48;8.63;;;12.30;99.90;;;;;;5064035;28;37772;-77
2020/12/23 06:55:15;;;;;;;11.70;7.87;;;12.40;99.90;;;;;;5044706;28;38479;-77
2020/12/23 06:57:43;;;;;;;18.90;9.80;;;12.40;99.90;;;;;;5047914;28;40010;-77
2020/12/23 07:00:25;;;;;;;7.05;6.22;;;12.40;99.90;;;;;;5060469;28;37319;-77
2020/12/23 07:02:55;;;;;;;16.25;9.18;;;12.40;99.90;;;;;;5043944;28;36457;-76
2020/12/23 07:05:21;;;;;;;8.57;6.50;;;12.40;99.90;;;;;;5063975;28;38732;-77
2020/12/23 07:07:51;;;;;;;7.43;6.65;;;12.40;99.90;;;;;;5063521;28;37877;-77
2020/12/23 07:10:31;;;;;;;11.38;8.00;;;12.40;99.90;;;;;;5049335;28;37674;-77
2020/12/23 07:13:04;;;;;;;9.68;8.68;;;12.40;99.90;;;;;;5045693;28;35970;-77
2020/12/23 07:15:35;;;;;;;14.23;10.57;;;12.40;99.90;;;;;;5045881;28;49083;-77
2020/12/23 07:18:09;;;;;;;11.27;10.00;;;12.40;99.90;;;;;;5063474;28;38470;-77
2020/12/23 07:20:45;;;;;;;12.18;10.80;;;12.30;99.90;;;;;;5044361;28;39154;-77
2020/12/23 07:23:13;;;;;;;16.98;14.52;;;12.30;99.90;;;;;;5052837;28;37482;-77
2020/12/23 07:25:54;;;;;;;17.05;14.73;;;12.40;99.90;;;;;;5060911;28;38368;-77
2020/12/23 07:28:42;;;;;;;17.70;15.90;;;12.30;99.90;;;;;;5045085;28;39639;-77
2020/12/23 07:31:10;;;;;;;18.83;16.90;;;12.30;99.90;;;;;;5045709;28;38557;-77
2020/12/23 07:33:38;;;;;;;18.67;16.70;;;12.30;99.90;;;;;;5050484;28;37356;-77
2020/12/23 07:36:04;;;;;;;20.27;18.10;;;12.30;99.90;;;;;;5060737;28;39424;-77
2020/12/23 07:38:33;;;;;;;22.55;19.70;;;12.20;99.90;;;;;;5046178;28;38771;-77
2020/12/23 07:40:59;;;;;;;19.73;17.60;;;12.20;99.90;;;;;;5048142;28;39693;-77
2020/12/23 07:43:26;;;;;;;26.27;20.85;;;12.20;99.90;;;;;;5045979;28;36011;-77
2020/12/23 07:45:53;;;;;;;20.45;17.55;;;12.20;99.90;;;;;;5055407;28;39619;-77
2020/12/23 07:48:21;;;;;;;18.52;16.55;;;12.20;99.90;;;;;;5045565;28;37923;-77
2020/12/23 07:50:55;;;;;;;20.88;16.73;;;12.20;99.90;;;;;;5046768;28;38572;-77
2020/12/23 07:53:29;;;;;;;13.38;11.93;;;12.10;99.90;;;;;;5062533;28;38177;-77
2020/12/23 07:56:05;;;;;;;12.13;9.55;;;12.10;99.90;;;;;;5045331;28;38141;-77
2020/12/23 07:58:39;;;;;;;9.68;8.68;;;12.10;99.90;;;;;;5059294;28;47481;-77
2020/12/23 08:01:08;;;;;;;7.15;6.45;;;12.10;99.90;;;;;;5062416;28;38981;-77
2020/12/23 08:03:35;;;;;;;6.50;5.90;;;12.10;99.90;;;;;;5053636;28;38556;-77
2020/12/23 08:06:12;;;;;;;6.00;4.97;;;12.10;99.90;;;;;;5062402;28;37795;-76
2020/12/23 08:08:40;;;;;;;6.32;4.72;;;12.10;99.90;;;;;;5061142;28;47738;-77
2020/12/23 08:11:14;;;;;;;7.28;5.50;;;12.10;99.90;;;;;;5045408;28;38387;-77
2020/12/23 08:13:41;;;;;;;6.72;4.53;;;12.10;99.90;;;;;;5046591;28;37348;-76
2020/12/23 08:16:12;;;;;;;5.88;4.80;;;12.10;99.90;;;;;;5046225;28;37957;-76
2020/12/23 08:18:40;;;;;;;5.50;4.68;;;12.10;99.90;;;;;;5061469;28;37595;-76
2020/12/23 08:21:10;;;;;;;6.15;4.38;;;12.10;99.90;;;;;;5045420;28;37669;-76
2020/12/23 08:23:37;;;;;;;7.72;4.65;;;12.10;99.90;;;;;;5038880;28;37298;-77
2020/12/23 08:26:04;;;;;;;4.78;4.38;;;12.10;99.90;;;;;;5060883;28;38195;-76
2020/12/23 08:28:36;;;;;;;8.10;5.65;;;12.10;99.90;;;;;;5040538;28;37874;-76
2020/12/23 08:31:04;;;;;;;7.65;5.30;;;12.10;99.90;;;;;;5043986;28;37195;-76
2020/12/23 08:33:32;;;;;;;5.27;4.70;;;12.10;99.90;;;;;;5046818;28;37327;-76
2020/12/23 08:36:00;;;;;;;7.07;5.35;;;12.10;99.90;;;;;;5062691;28;38603;-77
2020/12/23 08:38:26;;;;;;;9.10;6.85;;;12.10;99.90;;;;;;5061966;28;39054;-77
2020/12/23 08:40:55;;;;;;;8.95;6.80;;;12.10;99.90;;;;;;5043227;28;39245;-77
2020/12/23 08:43:27;;;;;;;7.90;6.18;;;12.10;99.90;;;;;;5044128;28;37488;-76
2020/12/23 08:45:55;;;;;;;8.70;6.20;;;12.10;99.90;;;;;;5045504;28;38794;-77
2020/12/23 08:48:29;;;;;;;9.50;7.57;;;12.10;99.90;;;;;;5058430;28;38065;-76
2020/12/23 08:51:03;;;;;;;8.10;6.88;;;12.10;99.90;;;;;;5045702;28;38590;-77
2020/12/23 08:53:34;;;;;;;10.50;7.60;;;12.10;99.90;;;;;;5055607;28;47536;-76
2020/12/23 08:56:01;;;;;;;11.43;8.32;;;12.10;99.90;;;;;;5062133;28;39264;-77
2020/12/23 08:58:28;;;;;;;8.32;6.80;;;12.10;99.90;;;;;;5061881;28;48025;-77
2020/12/23 09:01:01;;;;;;;8.85;6.85;;;12.10;99.90;;;;;;5041645;28;37567;-76
2020/12/23 09:03:28;;;;;;;10.10;7.32;;;12.10;99.90;;;;;;5062332;28;46859;-77
2020/12/23 09:05:59;;;;;;;9.73;7.85;;;12.00;99.90;;;;;;5045294;28;38688;-77
2020/12/23 09:08:26;;;;;;;9.48;7.72;;;12.10;99.90;;;;;;5044652;28;38665;-78
2020/12/23 09:10:57;;;;;;;10.38;7.50;;;12.10;99.90;;;;;;5041980;28;39135;-77
2020/12/23 09:13:33;;;;;;;10.38;6.47;;;12.00;99.90;;;;;;5047558;28;37560;-77
2020/12/23 09:15:59;;;;;;;9.50;6.65;;;12.10;99.90;;;;;;5044775;28;38715;-76
2020/12/23 09:18:26;;;;;;;9.95;7.60;;;12.10;99.90;;;;;;5044492;28;39768;-78
2020/12/23 09:21:02;;;;;;;7.68;6.53;;;12.10;99.90;;;;;;5046832;28;39031;-77
2020/12/23 09:23:28;;;;;;;8.70;6.82;;;12.10;99.90;;;;;;5055133;28;47442;-77
2020/12/23 09:25:55;;;;;;;9.50;7.22;;;12.00;99.90;;;;;;5045805;28;38965;-77
2020/12/23 09:28:26;;;;;;;9.95;7.88;;;12.00;99.90;;;;;;5048599;28;39870;-76
2020/12/23 09:31:01;;;;;;;11.15;6.82;;;12.10;99.90;;;;;;5049918;28;38376;-76
2020/12/23 09:33:39;;;;;;;9.15;7.00;;;12.00;99.90;;;;;;5062261;28;47149;-76
2020/12/23 09:36:06;;;;;;;10.75;7.80;;;12.00;99.90;;;;;;5041970;28;39204;-77
2020/12/23 09:38:35;;;;;;;10.40;7.30;;;12.00;99.90;;;;;;5043487;28;38902;-77
2020/12/23 09:41:05;;;;;;;11.18;7.72;;;12.00;99.90;;;;;;5049087;28;39350;-76
2020/12/23 09:43:34;;;;;;;9.00;7.35;;;12.00;99.90;;;;;;5054044;28;48120;-76
2020/12/23 09:46:06;;;;;;;9.20;5.97;;;12.00;99.90;;;;;;5047652;28;38941;-77
2020/12/23 09:48:32;;;;;;;7.05;5.53;;;12.10;99.90;;;;;;5050112;28;47825;-77
2020/12/23 09:50:59;;;;;;;7.40;5.07;;;12.10;99.90;;;;;;5046341;28;38466;-76
2020/12/23 09:53:26;;;;;;;6.10;4.65;;;12.10;99.90;;;;;;5042855;28;36438;-77
2020/12/23 09:55:52;;;;;;;5.68;4.93;;;12.10;99.90;;;;;;5045297;28;39917;-77
2020/12/23 09:58:19;;;;;;;6.18;5.28;;;12.10;99.90;;;;;;5059380;28;38853;-77
2020/12/23 10:00:47;;;;;;;6.05;4.15;;;12.10;99.90;;;;;;5041105;28;39150;-77
2020/12/23 10:03:13;;;;;;;6.10;3.13;;;12.10;99.90;;;;;;5045640;28;37212;-77
2020/12/23 10:05:40;;;;;;;2.92;2.63;;;12.10;99.90;;;;;;5065391;28;37462;-77
2020/12/23 10:08:07;;;;;;;3.38;2.70;;;12.10;99.90;;;;;;5052589;28;37853;-78
2020/12/23 10:10:34;;;;;;;2.55;2.30;;;12.10;99.90;;;;;;5051161;28;38634;-78
2020/12/23 10:13:00;;;;;;;4.45;2.00;;;12.10;99.90;;;;;;5047540;28;36379;-77
2020/12/23 10:15:26;;;;;;;2.58;2.03;;;12.10;99.90;;;;;;5037495;28;46536;-78
2020/12/23 10:17:53;;;;;;;4.32;2.35;;;12.10;99.90;;;;;;5046218;28;38538;-77
2020/12/23 10:20:19;;;;;;;2.63;2.03;;;12.20;99.90;;;;;;5064383;28;38845;-79
2020/12/23 10:22:45;;;;;;;2.90;2.30;;;12.20;99.90;;;;;;5062096;28;35633;-79
2020/12/23 10:25:11;;;;;;;3.45;2.47;;;12.20;99.90;;;;;;5057842;28;37756;-78
2020/12/23 10:27:37;;;;;;;5.75;3.78;;;12.20;99.90;;;;;;5046559;28;39214;-79
2020/12/23 10:30:08;;;;;;;4.13;3.35;;;12.20;99.90;;;;;;5047393;28;38653;-79
2020/12/23 10:32:34;;;;;;;3.10;2.50;;;12.30;99.90;;;;;;5061046;28;35939;-78
2020/12/23 10:35:01;;;;;;;2.88;2.28;;;12.30;99.90;;;;;;5044031;28;38660;-77
2020/12/23 10:37:27;;;;;;;5.38;2.95;;;12.30;99.90;;;;;;5037131;28;47306;-77
2020/12/23 10:39:53;;;;;;;7.10;4.15;;;12.30;99.90;;;;;;5039652;28;37369;-78
2020/12/23 10:42:19;;;;;;;10.15;5.72;;;12.30;99.90;;;;;;5047947;28;38089;-77
2020/12/23 10:44:46;;;;;;;3.92;3.28;;;12.30;99.90;;;;;;5049493;28;38373;-78
2020/12/23 10:47:12;;;;;;;5.03;3.78;;;12.30;99.90;;;;;;5054478;28;38897;-77
2020/12/23 10:49:38;;;;;;;6.85;5.43;;;12.30;99.90;;;;;;5047951;28;38270;-77
2020/12/23 10:52:04;;;;;;;4.25;3.58;;;12.30;99.90;;;;;;5064829;28;36724;-78
2020/12/23 10:54:30;;;;;;;6.07;4.38;;;12.30;99.90;;;;;;5040696;28;37558;-78
2020/12/23 10:56:57;;;;;;;4.35;3.30;;;12.30;99.90;;;;;;5056433;28;38640;-78
2020/12/23 10:59:24;;;;;;;2.70;2.22;;;12.30;99.90;;;;;;5044970;28;41367;-77
2020/12/23 11:01:54;;;;;;;4.88;3.53;;;12.30;99.90;;;;;;5061827;28;36391;-78
2020/12/23 11:04:21;;;;;;;6.10;4.38;;;12.30;99.90;;;;;;5039764;28;41094;-78
2020/12/23 11:06:52;;;;;;;6.75;5.22;;;12.30;99.90;;;;;;5057649;28;37596;-77
2020/12/23 11:09:18;;;;;;;9.23;7.15;;;12.40;99.90;;;;;;5060031;28;37139;-78
2020/12/23 11:11:52;;;;;;;9.38;8.00;;;12.40;99.90;;;;;;5041020;28;37309;-78
2020/12/23 11:14:18;;;;;;;10.85;9.75;;;12.50;99.90;;;;;;5045872;28;39445;-78
2020/12/23 11:16:51;;;;;;;12.18;9.77;;;12.60;99.90;;;;;;5045676;28;37269;-77
2020/12/23 11:19:20;;;;;;;9.00;8.10;;;12.60;99.90;;;;;;5046714;28;38657;-77
2020/12/23 11:21:47;;;;;;;8.02;7.22;;;12.60;99.90;;;;;;5043460;28;38183;-77
2020/12/23 11:24:13;;;;;;;7.75;6.68;;;12.60;99.90;;;;;;5051837;28;39233;-76
2020/12/23 11:26:40;;;;;;;6.00;5.40;;;12.60;99.90;;;;;;5042868;28;38919;-77
2020/12/23 11:29:06;;;;;;;5.97;5.43;;;12.60;99.90;;;;;;5043833;28;37589;-76
2020/12/23 11:31:32;;;;;;;6.07;5.47;;;12.60;99.90;;;;;;5058671;28;37244;-77
2020/12/23 11:33:59;;;;;;;7.63;5.60;;;12.60;99.90;;;;;;5046906;28;38515;-77
2020/12/23 11:36:25;;;;;;;7.00;4.93;;;12.60;99.90;;;;;;5057615;28;37417;-77
2020/12/23 11:38:51;;;;;;;7.55;4.72;;;12.60;99.90;;;;;;5057816;28;37498;-77
2020/12/23 11:41:17;;;;;;;5.45;4.20;;;12.60;99.90;;;;;;5046581;28;36623;-77
2020/12/23 11:43:44;;;;;;;5.65;3.90;;;12.70;99.90;;;;;;5062097;28;39005;-77
2020/12/23 11:46:10;;;;;;;7.15;3.75;;;12.70;99.90;;;;;;5038681;28;38526;-77
2020/12/23 11:48:37;;;;;;;6.38;3.88;;;12.70;99.90;;;;;;5046079;28;38329;-77
2020/12/23 11:51:06;;;;;;;3.97;3.10;;;12.70;99.90;;;;;;5048485;28;37231;-77
2020/12/23 11:53:32;;;;;;;5.07;4.22;;;12.70;99.90;;;;;;5052173;28;39148;-77
2020/12/23 11:55:58;;;;;;;5.68;3.47;;;12.70;99.90;;;;;;5042832;28;37775;-77
2020/12/23 11:58:24;;;;;;;5.28;3.67;;;12.70;99.90;;;;;;5044453;28;37933;-77
2020/12/23 12:00:51;;;;;;;4.65;4.18;;;12.70;99.90;;;;;;5048405;28;38282;-77
2020/12/23 12:03:18;;;;;;;5.00;3.95;;;12.70;99.90;;;;;;5046400;28;39490;-77
2020/12/23 12:05:44;;;;;;;5.45;3.20;;;12.70;99.90;;;;;;5045277;28;37833;-75
2020/12/23 12:08:10;;;;;;;3.28;2.60;;;12.70;99.90;;;;;;5047286;28;38620;-77
2020/12/23 12:10:36;;;;;;;4.40;3.40;;;12.70;99.90;;;;;;5042706;28;37114;-77
2020/12/23 12:13:04;;;;;;;2.88;2.65;;;12.70;99.90;;;;;;5063494;28;36771;-78
2020/12/23 12:15:30;;;;;;;3.90;2.17;;;12.70;99.90;;;;;;5035589;28;39797;-77
2020/12/23 12:17:57;;;;;;;3.20;2.90;;;12.70;99.90;;;;;;5045445;28;39137;-77
2020/12/23 12:20:23;;;;;;;4.38;3.17;;;12.70;99.90;;;;;;5045191;28;36455;-77
2020/12/23 12:22:49;;;;;;;5.15;3.28;;;12.70;99.90;;;;;;5048900;28;38677;-76
2020/12/23 12:25:16;;;;;;;4.28;3.30;;;12.70;99.90;;;;;;5036028;28;37443;-76
2020/12/23 12:27:42;;;;;;;5.00;3.20;;;12.70;99.90;;;;;;5047540;28;38439;-76
2020/12/23 12:30:08;;;;;;;4.28;3.30;;;12.70;99.90;;;;;;5046324;28;37979;-76
2020/12/23 12:32:34;;;;;;;5.53;3.38;;;12.70;99.90;;;;;;5060769;28;38781;-76
2020/12/23 12:35:01;;;;;;;5.13;3.40;;;12.70;99.90;;;;;;5044414;28;38995;-76
2020/12/23 12:37:29;;;;;;;3.70;2.70;;;12.70;99.90;;;;;;5046123;28;49016;-77